Time;durP1;ratioP1;P1;durP2;ratioP2;P2;SDS_P1;SDS_P2;PMS_P1;PMS_P2;Temp;Humidity;BMP_temperature;BMP_pressure;BME280_temperature;BME280_humidity;BME280_pressure;Samples;Min_cycle;Max_cycle;Signal;HPM_P1;HPM_P2
2021/01/07 00:01:32;;;;;;;10.38;6.18;;;180.10;2073.60;;;;;;4944891;28;20480;-71
2021/01/07 00:03:58;;;;;;;15.07;8.95;;;180.10;2073.60;;;;;;4952331;28;20477;-71
2021/01/07 00:06:24;;;;;;;8.32;5.30;;;180.00;2073.60;;;;;;4956421;28;20070;-70
2021/01/07 00:08:52;;;;;;;12.15;7.00;;;180.00;2048.00;;;;;;4953836;28;20389;-71
2021/01/07 00:11:17;;;;;;;10.15;6.00;;;180.00;2048.00;;;;;;4954855;28;20031;-71
2021/01/07 00:13:43;;;;;;;6.90;3.97;;;180.00;2048.00;;;;;;4954845;28;20042;-71
2021/01/07 00:16:09;;;;;;;12.50;7.25;;;180.10;2048.00;;;;;;4954825;28;20066;-71
2021/01/07 00:18:34;;;;;;;9.48;5.55;;;180.00;2048.00;;;;;;4953918;28;20026;-71
2021/01/07 00:21:00;;;;;;;7.78;5.25;;;180.10;2048.00;;;;;;4954598;28;20083;-71
2021/01/07 00:23:26;;;;;;;5.72;4.22;;;180.00;2073.60;;;;;;4954563;29;20401;-71
2021/01/07 00:25:54;;;;;;;6.00;4.20;;;180.10;2048.00;;;;;;4954046;28;20042;-71
2021/01/07 00:28:21;;;;;;;7.15;5.00;;;180.00;2073.60;;;;;;4954302;28;20788;-71
2021/01/07 00:30:47;;;;;;;9.85;5.82;;;179.90;2073.60;;;;;;4954156;29;20027;-71
2021/01/07 00:33:15;;;;;;;10.05;6.57;;;179.90;2073.60;;;;;;4954194;28;20027;-71
2021/01/07 00:35:40;;;;;;;9.07;5.90;;;180.00;2073.60;;;;;;4956542;28;20023;-71
2021/01/07 00:38:07;;;;;;;10.57;5.20;;;180.00;2048.00;;;;;;4954159;28;20042;-71
2021/01/07 00:40:34;;;;;;;10.13;6.03;;;179.90;2073.60;;;;;;4954387;29;20155;-71
2021/01/07 00:43:01;;;;;;;14.95;7.80;;;179.90;2048.00;;;;;;4954264;28;20024;-71
2021/01/07 00:45:28;;;;;;;14.40;7.05;;;179.90;2048.00;;;;;;4955645;28;20485;-70
2021/01/07 00:47:54;;;;;;;15.20;7.30;;;179.90;2048.00;;;;;;4952792;28;20032;-71
2021/01/07 00:50:20;;;;;;;22.05;11.85;;;179.80;2048.00;;;;;;4953268;28;20054;-71
2021/01/07 00:52:45;;;;;;;14.65;8.77;;;179.90;2073.60;;;;;;4948710;28;20058;-72
2021/01/07 00:55:12;;;;;;;13.40;8.23;;;179.80;2073.60;;;;;;4942843;29;20617;-70
2021/01/07 00:57:38;;;;;;;12.98;6.93;;;179.80;2073.60;;;;;;4946320;29;20481;-71
2021/01/07 01:00:08;;;;;;;8.15;5.20;;;179.80;2073.60;;;;;;4954920;28;20112;-71
2021/01/07 01:02:34;;;;;;;9.48;5.43;;;179.80;2099.20;;;;;;4954273;28;20444;-71
2021/01/07 01:05:01;;;;;;;7.65;4.65;;;179.80;2099.20;;;;;;4957436;28;20032;-70
2021/01/07 01:07:27;;;;;;;6.78;4.72;;;179.70;2099.20;;;;;;4958539;28;20126;-70
2021/01/07 01:09:54;;;;;;;5.88;4.20;;;179.70;2099.20;;;;;;4954468;28;20114;-70
2021/01/07 01:12:19;;;;;;;7.93;4.85;;;179.70;2099.20;;;;;;4953786;28;20027;-70
2021/01/07 01:14:45;;;;;;;8.85;5.60;;;179.70;2099.20;;;;;;4953751;28;20516;-70
2021/01/07 01:17:11;;;;;;;9.82;5.57;;;179.70;2099.20;;;;;;4951504;28;20013;-70
2021/01/07 01:19:37;;;;;;;8.55;5.20;;;179.60;2099.20;;;;;;4944281;29;20042;-71
2021/01/07 01:22:03;;;;;;;8.80;4.85;;;179.70;2099.20;;;;;;4952957;28;20043;-71
2021/01/07 01:24:29;;;;;;;9.63;5.07;;;179.60;2099.20;;;;;;4953899;28;20035;-70
2021/01/07 01:26:56;;;;;;;10.02;5.20;;;179.60;2099.20;;;;;;4953060;29;20091;-70
2021/01/07 01:29:22;;;;;;;6.55;4.53;;;179.60;2099.20;;;;;;4953487;28;20038;-71
2021/01/07 01:31:48;;;;;;;7.28;4.90;;;179.50;2124.80;;;;;;4954779;28;20026;-70
2021/01/07 01:34:16;;;;;;;8.80;4.38;;;179.50;2124.80;;;;;;4956711;28;20062;-71
2021/01/07 01:36:41;;;;;;;6.53;4.38;;;179.50;2124.80;;;;;;4955530;28;20393;-71
2021/01/07 01:39:07;;;;;;;6.18;4.32;;;179.50;2124.80;;;;;;4958617;28;20062;-71
2021/01/07 01:41:48;;;;;;;6.82;4.50;;;179.40;2124.80;;;;;;4958649;28;20373;-71
2021/01/07 01:44:16;;;;;;;8.05;5.25;;;179.40;2124.80;;;;;;4956507;28;20489;-71
2021/01/07 01:46:42;;;;;;;9.07;5.65;;;179.30;2124.80;;;;;;4968730;28;20054;-69
2021/01/07 01:49:09;;;;;;;8.65;5.28;;;179.30;2124.80;;;;;;4929877;28;20019;-71
2021/01/07 01:51:36;;;;;;;10.55;6.15;;;179.20;2124.80;;;;;;4956571;28;20058;-69
2021/01/07 01:54:02;;;;;;;8.48;5.90;;;179.20;2124.80;;;;;;4956623;28;20066;-70
2021/01/07 01:56:28;;;;;;;9.40;5.40;;;179.20;2124.80;;;;;;4965853;28;20069;-71
2021/01/07 01:58:54;;;;;;;9.90;5.20;;;179.20;2099.20;;;;;;4957235;28;20024;-71
2021/01/07 02:01:20;;;;;;;14.05;6.75;;;179.20;2099.20;;;;;;4957010;28;20094;-71
2021/01/07 02:03:48;;;;;;;10.23;6.82;;;179.20;2099.20;;;;;;4958929;28;20067;-71
2021/01/07 02:06:16;;;;;;;10.68;6.32;;;179.20;2099.20;;;;;;4958552;28;20079;-71
2021/01/07 02:08:46;;;;;;;8.02;5.60;;;179.20;2099.20;;;;;;4956513;28;20031;-71
2021/01/07 02:11:16;;;;;;;11.35;6.75;;;154.50;2099.20;;;;;;4956847;29;20453;-71
2021/01/07 02:13:46;;;;;;;8.93;5.22;;;154.50;2099.20;;;;;;4957791;28;20561;-71
2021/01/07 02:16:18;;;;;;;8.20;5.30;;;154.50;2073.60;;;;;;4955983;28;20101;-71
2021/01/07 02:18:44;;;;;;;12.07;7.18;;;154.50;2073.60;;;;;;4957957;28;20026;-71
2021/01/07 02:21:10;;;;;;;9.57;5.93;;;154.50;2073.60;;;;;;4956909;29;20031;-71
2021/01/07 02:23:53;;;;;;;10.93;6.50;;;154.50;2099.20;;;;;;4957239;28;20031;-71
2021/01/07 02:26:22;;;;;;;7.40;5.30;;;154.50;2099.20;;;;;;4956808;28;20122;-71
2021/01/07 02:28:49;;;;;;;11.32;6.13;;;154.50;2099.20;;;;;;4954677;28;20027;-71
2021/01/07 02:31:15;;;;;;;10.90;7.13;;;154.50;2099.20;;;;;;4956154;28;20485;-71
2021/01/07 02:33:42;;;;;;;11.25;6.68;;;154.50;2099.20;;;;;;4952030;28;20062;-71
2021/01/07 02:36:08;;;;;;;12.02;7.45;;;154.40;2099.20;;;;;;4959243;28;20137;-71
2021/01/07 02:38:34;;;;;;;25.88;13.32;;;154.40;2099.20;;;;;;4956312;28;20063;-71
2021/01/07 02:41:00;;;;;;;28.25;14.80;;;154.40;2124.80;;;;;;4953742;28;20071;-71
2021/01/07 02:43:26;;;;;;;28.33;13.20;;;154.30;2124.80;;;;;;4944115;28;20484;-71
2021/01/07 02:45:52;;;;;;;31.73;15.43;;;154.30;2124.80;;;;;;4957302;28;20027;-71
2021/01/07 02:48:18;;;;;;;24.15;12.68;;;154.30;2124.80;;;;;;4955404;28;20374;-71
2021/01/07 02:50:43;;;;;;;27.63;13.77;;;154.30;2124.80;;;;;;4958019;28;20035;-71
2021/01/07 02:53:09;;;;;;;31.48;15.88;;;154.30;2150.40;;;;;;4948599;28;20054;-71
2021/01/07 02:55:35;;;;;;;37.03;18.52;;;154.20;2124.80;;;;;;4954922;28;20047;-70
2021/01/07 02:58:01;;;;;;;39.38;20.73;;;154.20;2150.40;;;;;;4955351;28;20030;-71
2021/01/07 03:00:26;;;;;;;29.67;15.07;;;154.10;2150.40;;;;;;4955373;28;20032;-70
2021/01/07 03:02:52;;;;;;;38.85;19.40;;;154.10;2150.40;;;;;;4954726;28;20019;-71
2021/01/07 03:05:18;;;;;;;50.88;25.75;;;154.00;2150.40;;;;;;4957203;28;20374;-71
2021/01/07 03:07:44;;;;;;;51.92;25.55;;;154.00;2150.40;;;;;;4956126;28;20470;-71
2021/01/07 03:10:10;;;;;;;39.65;21.08;;;154.00;2150.40;;;;;;4955805;28;20031;-71
2021/01/07 03:12:36;;;;;;;40.15;19.95;;;153.90;2150.40;;;;;;4955927;28;20051;-70
2021/01/07 03:15:04;;;;;;;28.58;14.45;;;153.90;2150.40;;;;;;4955732;28;20038;-71
2021/01/07 03:17:30;;;;;;;24.27;13.70;;;153.90;2150.40;;;;;;4954424;28;20071;-71
2021/01/07 03:19:55;;;;;;;17.45;10.57;;;153.90;2150.40;;;;;;4955341;28;20507;-70
2021/01/07 03:22:21;;;;;;;22.08;13.23;;;153.90;2150.40;;;;;;4956347;28;20035;-71
2021/01/07 03:24:47;;;;;;;20.30;10.40;;;153.80;2150.40;;;;;;4955784;28;20393;-71
2021/01/07 03:27:12;;;;;;;27.42;14.38;;;153.80;2150.40;;;;;;4955020;28;20055;-71
2021/01/07 03:29:38;;;;;;;22.90;12.63;;;153.70;2150.40;;;;;;4956643;28;20031;-71
2021/01/07 03:32:04;;;;;;;13.88;8.52;;;153.70;2176.00;;;;;;4955309;28;20034;-71
2021/01/07 03:34:30;;;;;;;11.75;6.72;;;153.60;2176.00;;;;;;4950730;28;20035;-71
2021/01/07 03:36:56;;;;;;;10.63;6.65;;;153.60;2176.00;;;;;;4935104;28;20043;-71
2021/01/07 03:39:21;;;;;;;10.77;7.00;;;153.60;2176.00;;;;;;4955070;28;20069;-71
2021/01/07 03:41:47;;;;;;;12.38;8.70;;;153.60;2176.00;;;;;;4954246;28;20083;-71
2021/01/07 03:44:13;;;;;;;12.02;8.05;;;153.60;2176.00;;;;;;4950762;28;20074;-71
2021/01/07 03:46:39;;;;;;;22.38;14.30;;;153.60;2176.00;;;;;;4953854;29;20045;-71
2021/01/07 03:49:05;;;;;;;11.95;7.90;;;153.60;2201.60;;;;;;4955216;28;20111;-71
2021/01/07 03:51:34;;;;;;;11.88;8.45;;;128.90;2176.00;;;;;;4954555;28;20047;-71
2021/01/07 03:54:00;;;;;;;12.85;8.18;;;128.90;2201.60;;;;;;4955356;28;20090;-71
2021/01/07 03:56:26;;;;;;;14.77;8.35;;;128.90;2201.60;;;;;;4953996;28;20039;-71
2021/01/07 03:58:52;;;;;;;13.95;10.25;;;128.80;2227.20;;;;;;4954531;28;20023;-71
2021/01/07 04:01:17;;;;;;;19.50;10.43;;;128.70;2227.20;;;;;;4953094;28;20031;-71
2021/01/07 04:03:43;;;;;;;17.58;11.63;;;128.70;2227.20;;;;;;4954909;28;20082;-71
2021/01/07 04:06:09;;;;;;;18.67;12.07;;;128.60;2227.20;;;;;;4955965;28;20417;-71
2021/01/07 04:08:36;;;;;;;21.83;13.02;;;128.60;2227.20;;;;;;4956329;28;20030;-71
2021/01/07 04:11:02;;;;;;;17.75;12.02;;;128.60;2252.80;;;;;;4953501;28;20389;-71
2021/01/07 04:13:28;;;;;;;28.35;17.30;;;128.60;2252.80;;;;;;4954438;28;20478;-71
2021/01/07 04:15:54;;;;;;;28.75;18.50;;;128.60;2252.80;;;;;;4955097;28;20039;-71
2021/01/07 04:18:19;;;;;;;40.30;23.77;;;128.50;2252.80;;;;;;4954309;28;20114;-71
2021/01/07 04:20:45;;;;;;;35.70;21.70;;;128.50;2252.80;;;;;;4954888;28;20031;-71
2021/01/07 04:23:11;;;;;;;23.95;16.92;;;128.50;2252.80;;;;;;4955492;28;20490;-71
2021/01/07 04:25:36;;;;;;;22.02;16.27;;;128.40;2252.80;;;;;;4954111;28;20055;-71
2021/01/07 04:28:02;;;;;;;26.23;16.77;;;128.40;2252.80;;;;;;4950755;28;20111;-70
2021/01/07 04:30:28;;;;;;;37.75;22.55;;;128.40;2252.80;;;;;;4937997;28;20031;-71
2021/01/07 04:32:54;;;;;;;31.42;19.65;;;128.30;2252.80;;;;;;4953172;28;20028;-71
2021/01/07 04:35:20;;;;;;;43.70;25.95;;;128.30;2252.80;;;;;;4954279;28;20038;-71
2021/01/07 04:37:46;;;;;;;32.42;21.30;;;128.30;2252.80;;;;;;4955491;28;20039;-71
2021/01/07 04:40:12;;;;;;;35.17;22.40;;;128.30;2252.80;;;;;;4954257;28;20019;-71
2021/01/07 04:42:38;;;;;;;31.98;21.98;;;128.20;2252.80;;;;;;4952560;28;20114;-71
2021/01/07 04:45:04;;;;;;;34.20;22.92;;;128.20;2252.80;;;;;;4953639;28;20114;-71
2021/01/07 04:47:30;;;;;;;35.25;23.63;;;128.00;2252.80;;;;;;4954582;28;20031;-71
2021/01/07 04:49:56;;;;;;;33.72;22.88;;;128.10;2252.80;;;;;;4953705;29;20074;-71
2021/01/07 04:52:22;;;;;;;32.75;22.15;;;128.10;2252.80;;;;;;4954142;29;20047;-71
2021/01/07 04:54:51;;;;;;;39.22;24.48;;;128.00;2252.80;;;;;;4955670;28;20031;-71
2021/01/07 04:57:17;;;;;;;38.58;23.85;;;128.00;2252.80;;;;;;4954331;28;20035;-71
2021/01/07 04:59:43;;;;;;;36.60;23.63;;;128.00;2252.80;;;;;;4952527;28;20074;-71
2021/01/07 05:02:09;;;;;;;46.05;25.70;;;103.30;2227.20;;;;;;4953496;28;20075;-71
2021/01/07 05:04:51;;;;;;;33.05;22.70;;;103.30;2227.20;;;;;;4954224;28;20058;-71
2021/01/07 05:07:21;;;;;;;36.10;23.80;;;103.30;2227.20;;;;;;4953715;28;20025;-71
2021/01/07 05:09:47;;;;;;;34.38;23.27;;;103.20;2227.20;;;;;;4954827;28;20393;-71
2021/01/07 05:12:14;;;;;;;36.75;24.95;;;103.20;2227.20;;;;;;4956142;28;20019;-72
2021/01/07 05:14:44;;;;;;;41.92;24.13;;;103.20;2227.20;;;;;;4957997;28;20106;-71
2021/01/07 05:17:12;;;;;;;35.03;24.20;;;103.10;2227.20;;;;;;4956530;28;20115;-71
2021/01/07 05:19:38;;;;;;;36.28;23.08;;;103.10;2227.20;;;;;;4958113;28;20087;-71
2021/01/07 05:22:05;;;;;;;31.23;21.90;;;103.00;2227.20;;;;;;4957276;28;20397;-71
2021/01/07 05:24:32;;;;;;;33.80;22.00;;;103.10;2227.20;;;;;;4942955;28;20032;-71
2021/01/07 05:27:16;;;;;;;34.58;21.95;;;103.00;2227.20;;;;;;4959081;28;20027;-71
2021/01/07 05:29:42;;;;;;;31.30;21.75;;;103.00;2227.20;;;;;;4957785;28;20118;-71
2021/01/07 05:32:09;;;;;;;30.50;20.60;;;102.90;2227.20;;;;;;4955257;28;20432;-71
2021/01/07 05:34:48;;;;;;;29.30;20.33;;;102.90;2227.20;;;;;;4956328;28;20066;-71
2021/01/07 05:37:19;;;;;;;33.25;20.85;;;102.80;2227.20;;;;;;4957440;28;20433;-71
2021/01/07 05:39:49;;;;;;;34.58;20.33;;;102.80;2227.20;;;;;;4958082;29;20123;-71
2021/01/07 05:42:16;;;;;;;34.75;21.83;;;102.70;2227.20;;;;;;4957303;28;20029;-70
2021/01/07 05:44:46;;;;;;;33.08;21.27;;;102.70;2227.20;;;;;;4957700;28;20115;-71
2021/01/07 05:47:43;;;;;;;30.63;20.05;;;102.70;2227.20;;;;;;4955557;28;20027;-69
2021/01/07 05:50:10;;;;;;;29.17;19.17;;;102.60;2227.20;;;;;;4955093;28;20448;-70
2021/01/07 05:52:44;;;;;;;27.55;17.33;;;102.60;2227.20;;;;;;4961677;28;20528;-69
2021/01/07 05:55:14;;;;;;;22.25;15.55;;;102.60;2227.20;;;;;;4957353;28;20020;-71
2021/01/07 05:57:41;;;;;;;21.80;14.05;;;102.60;2227.20;;;;;;4956825;28;20035;-70
2021/01/07 06:00:08;;;;;;;20.73;13.75;;;102.50;2227.20;;;;;;4958854;28;20027;-70
2021/01/07 06:02:37;;;;;;;21.95;14.60;;;102.50;2227.20;;;;;;4960724;28;20034;-70
2021/01/07 06:05:06;;;;;;;20.98;13.27;;;102.50;2227.20;;;;;;4953226;28;20042;-70
2021/01/07 06:07:32;;;;;;;23.60;13.90;;;102.40;2227.20;;;;;;4957197;28;20382;-70
2021/01/07 06:09:59;;;;;;;24.13;14.88;;;102.40;2227.20;;;;;;4957391;28;20126;-70
2021/01/07 06:12:27;;;;;;;30.27;18.10;;;102.40;2227.20;;;;;;4956181;28;20027;-71
2021/01/07 06:14:53;;;;;;;37.10;22.17;;;102.40;2227.20;;;;;;4956008;28;20087;-71
2021/01/07 06:17:23;;;;;;;77.03;47.38;;;102.40;2227.20;;;;;;4961287;28;20090;-71
2021/01/07 06:19:53;;;;;;;49.17;33.83;;;102.40;2227.20;;;;;;4938631;29;20470;-71
2021/01/07 06:22:20;;;;;;;34.17;24.15;;;102.40;2227.20;;;;;;4949759;28;20039;-70
2021/01/07 06:24:51;;;;;;;27.02;18.52;;;102.40;2227.20;;;;;;4953930;28;20019;-71
2021/01/07 06:27:33;;;;;;;27.55;17.20;;;77.70;2227.20;;;;;;4942438;28;20020;-82
2021/01/07 06:30:11;;;;;;;23.98;16.45;;;77.70;2227.20;;;;;;4920291;28;20030;-72
2021/01/07 06:32:37;;;;;;;20.73;16.30;;;77.70;2227.20;;;;;;4913649;28;20042;-70
2021/01/07 06:35:34;;;;;;;26.13;17.05;;;77.70;2227.20;;;;;;4920394;28;20856;-69
2021/01/07 06:38:00;;;;;;;25.42;18.00;;;77.70;2227.20;;;;;;4921030;28;20798;-72
2021/01/07 06:40:25;;;;;;;24.63;16.83;;;77.70;2227.20;;;;;;4927035;28;20488;-70
2021/01/07 06:42:53;;;;;;;23.55;16.80;;;77.60;2227.20;;;;;;4924687;28;20028;-71
2021/01/07 06:45:23;;;;;;;25.30;15.32;;;77.70;2227.20;;;;;;4920404;28;20055;-70
2021/01/07 06:47:55;;;;;;;22.67;15.13;;;102.40;2227.20;;;;;;4918831;28;20035;-74
2021/01/07 06:50:22;;;;;;;21.70;15.85;;;102.40;2227.20;;;;;;4920732;28;20129;-86
2021/01/07 06:52:49;;;;;;;24.98;18.02;;;102.40;2227.20;;;;;;4919359;28;20178;-74
2021/01/07 06:55:21;;;;;;;20.48;12.60;;;102.50;2227.20;;;;;;4918433;28;20833;-73
2021/01/07 06:57:47;;;;;;;66.68;37.22;;;102.50;2227.20;;;;;;4916622;28;20031;-73
2021/01/07 07:00:21;;;;;;;96.93;54.40;;;102.60;2227.20;;;;;;4916533;28;20031;-72
2021/01/07 07:03:03;;;;;;;;;;;102.60;2227.20;;;;;;4913564;28;20491;-71
2021/01/07 07:05:36;;;;;;;29.45;19.15;;;102.60;2227.20;;;;;;4915888;28;20342;-72
2021/01/07 07:08:10;;;;;;;18.35;13.18;;;102.60;2227.20;;;;;;4917906;28;20491;-72
2021/01/07 07:10:39;;;;;;;16.10;12.40;;;102.70;2227.20;;;;;;4918928;28;20455;-71
2021/01/07 07:13:23;;;;;;;21.02;14.80;;;102.80;2227.20;;;;;;4916899;28;20936;-71
2021/01/07 07:15:50;;;;;;;16.30;10.40;;;102.90;2201.60;;;;;;4914130;28;20043;-71
2021/01/07 07:18:33;;;;;;;21.77;18.80;;;103.00;2176.00;;;;;;4918146;28;20138;-70
2021/01/07 07:21:13;;;;;;;17.95;12.55;;;103.20;2176.00;;;;;;4913370;28;20031;-73
2021/01/07 07:23:41;;;;;;;15.18;9.38;;;103.20;2150.40;;;;;;4916178;28;20058;-72
2021/01/07 07:26:12;;;;;;;13.77;8.73;;;128.10;2150.40;;;;;;4916938;28;20475;-71
2021/01/07 07:28:43;;;;;;;14.18;9.48;;;128.30;2124.80;;;;;;4922494;28;20559;-71
2021/01/07 07:31:09;;;;;;;19.58;10.75;;;128.50;2099.20;;;;;;4914932;28;20547;-72
2021/01/07 07:33:40;;;;;;;21.85;11.25;;;128.60;2099.20;;;;;;4915719;28;20027;-72
2021/01/07 07:36:10;;;;;;;17.63;10.90;;;128.70;2099.20;;;;;;4918606;28;20363;-68
2021/01/07 07:38:40;;;;;;;13.60;9.40;;;128.80;2073.60;;;;;;4917623;28;20031;-68
2021/01/07 07:41:07;;;;;;;16.23;9.57;;;153.60;2048.00;;;;;;4916485;28;20433;-68
2021/01/07 07:43:34;;;;;;;16.52;9.75;;;153.80;2022.40;;;;;;4918702;28;20027;-68
2021/01/07 07:46:01;;;;;;;23.40;16.38;;;154.10;1996.80;;;;;;4916556;28;20058;-71
2021/01/07 07:48:29;;;;;;;19.00;13.13;;;154.20;1996.80;;;;;;4915727;28;20054;-72
2021/01/07 07:51:08;;;;;;;17.35;13.50;;;154.10;1971.20;;;;;;4912782;28;20558;-70
2021/01/07 07:53:35;;;;;;;15.52;11.73;;;154.30;1945.60;;;;;;4914613;28;20043;-70
2021/01/07 07:56:01;;;;;;;17.05;11.18;;;154.40;1945.60;;;;;;4912887;28;20039;-70
2021/01/07 07:58:27;;;;;;;15.85;10.45;;;154.50;1945.60;;;;;;4915530;29;20042;-69
2021/01/07 08:00:55;;;;;;;17.80;12.13;;;154.50;1920.00;;;;;;4915837;28;20047;-73
2021/01/07 08:03:25;;;;;;;22.10;13.77;;;179.20;1920.00;;;;;;4910961;28;20567;-71
2021/01/07 08:05:51;;;;;;;18.13;12.98;;;179.30;1920.00;;;;;;4923213;28;20039;-71
2021/01/07 08:08:33;;;;;;;15.18;12.32;;;179.70;1920.00;;;;;;4915168;28;20300;-71
2021/01/07 08:11:01;;;;;;;17.05;9.65;;;179.30;1920.00;;;;;;4907219;28;20027;-72
2021/01/07 08:13:29;;;;;;;17.25;10.90;;;179.30;1920.00;;;;;;4915315;28;20039;-72
2021/01/07 08:15:56;;;;;;;18.27;9.55;;;179.30;1920.00;;;;;;4914526;28;20035;-74
2021/01/07 08:18:24;;;;;;;11.50;8.88;;;179.30;1920.00;;;;;;4915494;28;20471;-72
2021/01/07 08:20:52;;;;;;;11.50;7.80;;;179.30;1894.40;;;;;;4915889;28;20470;-73
2021/01/07 08:23:18;;;;;;;10.88;8.15;;;179.30;1894.40;;;;;;4914171;28;20039;-69
2021/01/07 08:25:46;;;;;;;12.77;8.73;;;179.30;1894.40;;;;;;4915469;28;20061;-68
2021/01/07 08:28:15;;;;;;;18.65;9.48;;;179.20;1920.00;;;;;;4919865;28;20031;-69
2021/01/07 08:30:50;;;;;;;14.27;10.35;;;154.50;1920.00;;;;;;4919548;28;20065;-70
2021/01/07 08:33:18;;;;;;;12.65;7.85;;;154.50;1945.60;;;;;;4912270;29;20074;-69
2021/01/07 08:35:45;;;;;;;17.55;11.07;;;154.40;1920.00;;;;;;4918913;28;20858;-70
2021/01/07 08:38:26;;;;;;;13.13;10.13;;;154.20;1945.60;;;;;;4916870;28;20062;-69
2021/01/07 08:41:08;;;;;;;12.55;9.52;;;154.10;1971.20;;;;;;4913120;28;20126;-69
2021/01/07 08:43:35;;;;;;;13.70;9.10;;;154.10;1971.20;;;;;;4916655;28;20046;-70
2021/01/07 09:07:44;;;;;;;13.07;8.00;;;154.20;1971.20;;;;;;4905086;23;20106;-71
2021/01/07 09:10:11;;;;;;;10.73;7.18;;;154.10;1945.60;;;;;;4890354;29;20537;-71
2021/01/07 09:12:36;;;;;;;12.00;8.65;;;154.20;1920.00;;;;;;4883426;29;20031;-76
2021/01/07 09:15:11;;;;;;;12.00;7.72;;;154.30;1945.60;;;;;;4889461;29;20384;-72
2021/01/07 09:17:44;;;;;;;12.50;8.60;;;154.30;1945.60;;;;;;4882442;29;20040;-71
2021/01/07 09:20:15;;;;;;;11.85;8.05;;;154.30;1945.60;;;;;;4882193;29;20908;-72
2021/01/07 09:22:42;;;;;;;12.50;8.50;;;154.40;1945.60;;;;;;4881676;29;20066;-71
2021/01/07 09:25:09;;;;;;;11.77;7.07;;;154.40;1945.60;;;;;;4896212;29;20529;-74
2021/01/07 09:27:35;;;;;;;9.20;6.97;;;154.30;1920.00;;;;;;4886404;29;20059;-69
2021/01/07 09:30:01;;;;;;;15.57;9.60;;;154.40;1945.60;;;;;;4882095;29;20575;-69
2021/01/07 09:32:27;;;;;;;18.15;9.27;;;154.40;1945.60;;;;;;4884956;29;20655;-69
2021/01/07 09:34:53;;;;;;;12.40;8.32;;;154.40;1945.60;;;;;;4885004;29;20028;-69
2021/01/07 09:37:23;;;;;;;9.63;7.35;;;154.50;1971.20;;;;;;4885227;29;20202;-70
2021/01/07 09:39:51;;;;;;;16.20;11.02;;;154.40;1945.60;;;;;;4878961;29;20036;-69
2021/01/07 09:42:28;;;;;;;21.85;14.88;;;154.50;1945.60;;;;;;4883178;29;20028;-70
2021/01/07 09:44:55;;;;;;;40.55;22.90;;;154.50;1945.60;;;;;;4885381;29;20020;-69
2021/01/07 09:47:20;;;;;;;82.50;47.15;;;154.50;1945.60;;;;;;4890451;29;20162;-69
2021/01/07 09:49:46;;;;;;;38.63;25.10;;;154.50;1945.60;;;;;;4887278;29;20033;-69
2021/01/07 09:52:12;;;;;;;22.50;16.88;;;154.50;1945.60;;;;;;4885496;29;20473;-68
2021/01/07 09:54:39;;;;;;;17.13;12.00;;;179.20;1971.20;;;;;;4889108;29;20502;-70
2021/01/07 09:57:05;;;;;;;20.98;14.50;;;179.30;1971.20;;;;;;4886145;29;20391;-69
2021/01/07 09:59:31;;;;;;;16.63;11.68;;;179.30;1996.80;;;;;;4889003;29;20027;-69
2021/01/07 10:02:24;;;;;;;33.97;24.33;;;179.30;1971.20;;;;;;4888130;29;20490;-70
2021/01/07 10:04:49;;;;;;;26.40;17.40;;;179.40;1971.20;;;;;;4869510;29;20649;-69
2021/01/07 10:07:15;;;;;;;11.65;9.27;;;179.50;1945.60;;;;;;4880822;29;20059;-69
2021/01/07 10:09:41;;;;;;;11.13;8.00;;;179.60;1945.60;;;;;;4888032;29;20612;-69
2021/01/07 10:12:08;;;;;;;9.93;7.18;;;179.70;1920.00;;;;;;4887792;29;20826;-69
2021/01/07 10:14:34;;;;;;;9.48;6.13;;;179.60;1920.00;;;;;;4872541;29;20449;-69
2021/01/07 10:17:05;;;;;;;14.07;8.30;;;179.70;1894.40;;;;;;4897780;29;20047;-69
2021/01/07 10:19:32;;;;;;;10.93;7.75;;;179.70;1920.00;;;;;;4899094;29;20066;-69
2021/01/07 10:22:10;;;;;;;12.05;10.63;;;179.80;1920.00;;;;;;4895247;29;20035;-69
2021/01/07 10:24:42;;;;;;;12.52;7.47;;;180.00;1945.60;;;;;;4879948;29;20036;-68
2021/01/07 10:27:10;;;;;;;10.40;7.07;;;180.00;1894.40;;;;;;4887276;29;20020;-72
2021/01/07 10:29:37;;;;;;;13.13;9.70;;;180.00;1894.40;;;;;;4892130;29;20884;-75
2021/01/07 10:32:15;;;;;;;15.23;10.57;;;180.10;1920.00;;;;;;4901048;29;20103;-75
2021/01/07 10:34:46;;;;;;;25.35;14.65;;;204.80;1920.00;;;;;;4880881;29;20036;-70
2021/01/07 10:37:14;;;;;;;19.92;13.63;;;204.80;1920.00;;;;;;4895409;29;20301;-69
2021/01/07 10:39:42;;;;;;;14.43;9.60;;;205.00;1894.40;;;;;;4891997;29;20024;-69
2021/01/07 10:42:12;;;;;;;11.90;8.27;;;205.00;1868.80;;;;;;4888232;29;20035;-69
2021/01/07 10:44:40;;;;;;;11.88;8.38;;;205.00;1843.20;;;;;;4894149;29;20055;-76
2021/01/07 10:47:07;;;;;;;13.13;8.68;;;204.90;1868.80;;;;;;4881176;29;20037;-72
2021/01/07 10:49:36;;;;;;;10.75;8.48;;;204.80;1868.80;;;;;;4890332;29;20858;-70
2021/01/07 10:52:07;;;;;;;14.55;9.38;;;180.10;1894.40;;;;;;4886273;29;20127;-70
2021/01/07 10:54:51;;;;;;;13.73;9.52;;;180.10;1894.40;;;;;;4898301;29;20039;-70
2021/01/07 10:57:42;;;;;;;16.27;10.05;;;204.80;1894.40;;;;;;4892978;29;20036;-70
2021/01/07 11:00:13;;;;;;;13.15;9.50;;;204.90;1868.80;;;;;;4886067;29;20023;-83
2021/01/07 11:03:00;;;;;;;13.80;9.70;;;205.00;1868.80;;;;;;4882063;29;20040;-73
2021/01/07 11:05:31;;;;;;;15.45;11.15;;;205.20;1868.80;;;;;;4890223;29;20043;-73
2021/01/07 11:08:15;;;;;;;17.13;12.02;;;205.20;1868.80;;;;;;4883099;29;20084;-75
2021/01/07 11:10:49;;;;;;;15.25;10.43;;;205.30;1894.40;;;;;;4886101;29;20055;-73
2021/01/07 11:13:16;;;;;;;;;;;205.30;1868.80;;;;;;4883100;29;20158;-74
2021/01/07 11:15:44;;;;;;;15.45;11.15;;;205.70;1843.20;;;;;;4896790;29;19915;-70
2021/01/07 11:18:33;;;;;;;18.08;13.93;;;205.50;1817.60;;;;;;4883513;29;20028;-69
2021/01/07 11:21:04;;;;;;;16.83;10.35;;;205.60;1817.60;;;;;;4876507;29;20037;-68
2021/01/07 11:23:31;;;;;;;14.80;10.90;;;205.60;1792.00;;;;;;4873858;29;20834;-68
2021/01/07 11:25:58;;;;;;;12.48;9.30;;;205.70;1792.00;;;;;;4889341;29;20114;-69
2021/01/07 11:28:25;;;;;;;14.10;10.48;;;230.40;1766.40;;;;;;4891485;29;20122;-68
2021/01/07 11:30:52;;;;;;;14.35;10.65;;;230.40;1766.40;;;;;;4882971;29;20134;-68
2021/01/07 11:33:18;;;;;;;14.73;10.82;;;205.40;1792.00;;;;;;4881910;29;20529;-71
2021/01/07 11:35:45;;;;;;;15.13;11.13;;;205.30;1817.60;;;;;;4886012;29;20051;-66
2021/01/07 11:38:22;;;;;;;16.98;11.77;;;205.20;1817.60;;;;;;4886964;29;20071;-66
2021/01/07 11:41:02;;;;;;;15.98;12.05;;;205.00;1843.20;;;;;;4884354;29;20108;-67
2021/01/07 11:43:43;;;;;;;19.38;13.57;;;205.00;1868.80;;;;;;4886812;29;20295;-67
2021/01/07 11:46:14;;;;;;;17.25;11.68;;;204.90;1868.80;;;;;;4873222;29;20059;-67
2021/01/07 11:48:44;;;;;;;19.20;13.10;;;205.00;1868.80;;;;;;4888902;29;20288;-65
2021/01/07 11:51:12;;;;;;;18.02;10.60;;;204.90;1868.80;;;;;;4888206;29;20059;-67
2021/01/07 11:53:39;;;;;;;17.58;11.23;;;204.90;1843.20;;;;;;4894003;29;20344;-65
2021/01/07 11:56:05;;;;;;;17.58;13.05;;;180.10;1868.80;;;;;;4885377;29;20374;-64
2021/01/07 11:58:31;;;;;;;17.65;12.65;;;204.80;1894.40;;;;;;4891165;29;20909;-68
2021/01/07 12:00:59;;;;;;;19.88;13.80;;;204.80;1894.40;;;;;;4883309;29;20024;-66
2021/01/07 12:03:33;;;;;;;18.98;13.75;;;204.80;1894.40;;;;;;4883912;29;20028;-67
2021/01/07 12:06:17;;;;;;;;;;;180.10;1920.00;;;;;;4892553;29;20067;-65
2021/01/07 12:08:49;;;;;;;15.32;10.85;;;180.10;1920.00;;;;;;4882247;29;19925;-65
2021/01/07 12:11:43;;;;;;;16.83;13.18;;;180.10;1894.40;;;;;;4886492;29;20114;-64
2021/01/07 12:14:11;;;;;;;19.90;12.30;;;205.00;1894.40;;;;;;4865006;29;20122;-66
2021/01/07 12:16:49;;;;;;;18.05;13.23;;;204.90;1894.40;;;;;;4885215;29;20036;-66
2021/01/07 12:19:15;;;;;;;15.82;12.57;;;205.10;1868.80;;;;;;4875669;29;20043;-67
2021/01/07 12:21:42;;;;;;;22.23;15.23;;;205.30;1843.20;;;;;;4890817;29;20573;-67
2021/01/07 12:24:11;;;;;;;15.85;10.48;;;205.30;1817.60;;;;;;4889080;29;20035;-66
2021/01/07 12:26:37;;;;;;;15.02;11.30;;;205.40;1817.60;;;;;;4896321;29;20083;-66
2021/01/07 12:29:03;;;;;;;25.17;16.05;;;205.40;1817.60;;;;;;4880846;29;20028;-66
2021/01/07 12:31:30;;;;;;;21.17;13.85;;;205.40;1817.60;;;;;;4884156;29;20885;-66
2021/01/07 12:34:19;;;;;;;15.77;11.00;;;180.00;1817.60;;;;;;4886418;29;20393;-65
2021/01/07 12:37:05;;;;;;;14.18;9.85;;;205.20;1817.60;;;;;;4886544;29;20040;-66